sensor_id;sensor_type;location;lat;lon;timestamp;temperature;humidity
15328;DHT22;7764;51.430;6.840;2023-03-23T00:01:22;12.80;99.90
15328;DHT22;7764;51.430;6.840;2023-03-23T00:03:53;12.80;99.90
15328;DHT22;7764;51.430;6.840;2023-03-23T00:06:23;12.80;99.90
15328;DHT22;7764;51.430;6.840;2023-03-23T00:08:53;12.80;99.90
15328;DHT22;7764;51.430;6.840;2023-03-23T00:11:26;12.90;99.90
15328;DHT22;7764;51.430;6.840;2023-03-23T00:13:55;12.90;99.90
15328;DHT22;7764;51.430;6.840;2023-03-23T00:16:28;12.90;99.90
15328;DHT22;7764;51.430;6.840;2023-03-23T00:18:57;13.00;99.90
15328;DHT22;7764;51.430;6.840;2023-03-23T00:21:26;13.00;99.90
15328;DHT22;7764;51.430;6.840;2023-03-23T00:24:03;13.00;99.90
15328;DHT22;7764;51.430;6.840;2023-03-23T00:26:31;13.00;99.90
15328;DHT22;7764;51.430;6.840;2023-03-23T00:29:00;13.00;99.90
15328;DHT22;7764;51.430;6.840;2023-03-23T00:31:28;13.00;99.90
15328;DHT22;7764;51.430;6.840;2023-03-23T00:33:57;13.10;99.90
15328;DHT22;7764;51.430;6.840;2023-03-23T00:36:26;13.10;99.90
15328;DHT22;7764;51.430;6.840;2023-03-23T00:38:54;13.10;99.90
15328;DHT22;7764;51.430;6.840;2023-03-23T00:41:26;13.10;99.90
15328;DHT22;7764;51.430;6.840;2023-03-23T00:43:54;13.10;99.90
15328;DHT22;7764;51.430;6.840;2023-03-23T00:46:21;13.10;99.90
15328;DHT22;7764;51.430;6.840;2023-03-23T00:48:48;13.10;99.90
15328;DHT22;7764;51.430;6.840;2023-03-23T00:51:16;13.10;99.90
15328;DHT22;7764;51.430;6.840;2023-03-23T00:53:43;13.10;99.90
15328;DHT22;7764;51.430;6.840;2023-03-23T00:56:11;13.10;99.90
15328;DHT22;7764;51.430;6.840;2023-03-23T00:58:39;13.10;99.90
15328;DHT22;7764;51.430;6.840;2023-03-23T01:01:06;13.10;99.90
15328;DHT22;7764;51.430;6.840;2023-03-23T01:03:34;13.10;99.90
15328;DHT22;7764;51.430;6.840;2023-03-23T01:06:05;13.20;99.90
15328;DHT22;7764;51.430;6.840;2023-03-23T01:08:34;13.20;99.90
15328;DHT22;7764;51.430;6.840;2023-03-23T01:11:05;13.20;99.90
15328;DHT22;7764;51.430;6.840;2023-03-23T01:13:33;13.20;99.90
15328;DHT22;7764;51.430;6.840;2023-03-23T01:16:02;13.20;99.90
15328;DHT22;7764;51.430;6.840;2023-03-23T01:18:29;13.20;99.90
15328;DHT22;7764;51.430;6.840;2023-03-23T01:20:55;13.20;99.90
15328;DHT22;7764;51.430;6.840;2023-03-23T01:23:22;13.30;99.90
15328;DHT22;7764;51.430;6.840;2023-03-23T01:25:49;13.20;99.90
15328;DHT22;7764;51.430;6.840;2023-03-23T01:28:18;13.20;99.90
15328;DHT22;7764;51.430;6.840;2023-03-23T01:30:45;13.30;99.90
15328;DHT22;7764;51.430;6.840;2023-03-23T01:33:13;13.30;99.90
15328;DHT22;7764;51.430;6.840;2023-03-23T01:35:40;13.30;99.90
15328;DHT22;7764;51.430;6.840;2023-03-23T01:38:07;13.30;99.90
15328;DHT22;7764;51.430;6.840;2023-03-23T01:40:34;13.30;99.90
15328;DHT22;7764;51.430;6.840;2023-03-23T01:43:01;13.30;99.90
15328;DHT22;7764;51.430;6.840;2023-03-23T01:45:30;13.30;99.90
15328;DHT22;7764;51.430;6.840;2023-03-23T01:48:05;13.30;99.90
15328;DHT22;7764;51.430;6.840;2023-03-23T01:50:40;13.30;99.90
15328;DHT22;7764;51.430;6.840;2023-03-23T01:53:11;13.30;99.90
15328;DHT22;7764;51.430;6.840;2023-03-23T01:55:40;13.30;99.90
15328;DHT22;7764;51.430;6.840;2023-03-23T01:58:08;13.30;99.90
15328;DHT22;7764;51.430;6.840;2023-03-23T02:00:36;13.40;99.90
15328;DHT22;7764;51.430;6.840;2023-03-23T02:03:06;13.30;99.90
15328;DHT22;7764;51.430;6.840;2023-03-23T02:05:39;13.30;99.90
15328;DHT22;7764;51.430;6.840;2023-03-23T02:08:07;13.30;99.90
15328;DHT22;7764;51.430;6.840;2023-03-23T02:10:36;13.30;99.90
15328;DHT22;7764;51.430;6.840;2023-03-23T02:13:05;13.30;99.90
15328;DHT22;7764;51.430;6.840;2023-03-23T02:15:37;13.30;99.90
15328;DHT22;7764;51.430;6.840;2023-03-23T02:18:10;13.30;99.90
15328;DHT22;7764;51.430;6.840;2023-03-23T02:20:56;13.30;99.90
15328;DHT22;7764;51.430;6.840;2023-03-23T02:23:40;13.30;99.90
15328;DHT22;7764;51.430;6.840;2023-03-23T02:26:23;13.30;99.90
15328;DHT22;7764;51.430;6.840;2023-03-23T02:29:16;13.20;99.90
15328;DHT22;7764;51.430;6.840;2023-03-23T02:32:08;13.20;99.90
15328;DHT22;7764;51.430;6.840;2023-03-23T02:34:40;13.10;99.90
15328;DHT22;7764;51.430;6.840;2023-03-23T02:37:10;13.10;99.90
15328;DHT22;7764;51.430;6.840;2023-03-23T02:39:43;13.00;99.90
15328;DHT22;7764;51.430;6.840;2023-03-23T02:42:15;13.00;99.90
15328;DHT22;7764;51.430;6.840;2023-03-23T02:44:44;13.00;99.90
15328;DHT22;7764;51.430;6.840;2023-03-23T02:47:16;13.00;99.90
15328;DHT22;7764;51.430;6.840;2023-03-23T02:49:47;12.90;99.90
15328;DHT22;7764;51.430;6.840;2023-03-23T02:52:18;12.90;99.90
15328;DHT22;7764;51.430;6.840;2023-03-23T02:54:48;12.90;99.90
15328;DHT22;7764;51.430;6.840;2023-03-23T02:57:16;12.90;99.90
15328;DHT22;7764;51.430;6.840;2023-03-23T02:59:44;12.90;99.90
15328;DHT22;7764;51.430;6.840;2023-03-23T03:02:13;12.90;99.90
15328;DHT22;7764;51.430;6.840;2023-03-23T03:04:48;12.90;99.90
15328;DHT22;7764;51.430;6.840;2023-03-23T03:07:32;12.80;99.90
15328;DHT22;7764;51.430;6.840;2023-03-23T03:10:06;12.90;99.90
15328;DHT22;7764;51.430;6.840;2023-03-23T03:12:44;12.90;99.90
15328;DHT22;7764;51.430;6.840;2023-03-23T03:15:20;12.90;99.90
15328;DHT22;7764;51.430;6.840;2023-03-23T03:17:55;12.90;99.90
15328;DHT22;7764;51.430;6.840;2023-03-23T03:20:25;12.90;99.90
15328;DHT22;7764;51.430;6.840;2023-03-23T03:22:53;12.90;99.90
15328;DHT22;7764;51.430;6.840;2023-03-23T03:25:22;12.90;99.90
15328;DHT22;7764;51.430;6.840;2023-03-23T03:27:50;12.90;99.90
15328;DHT22;7764;51.430;6.840;2023-03-23T03:30:20;12.90;99.90
15328;DHT22;7764;51.430;6.840;2023-03-23T03:32:48;12.90;99.90
15328;DHT22;7764;51.430;6.840;2023-03-23T03:35:16;12.90;99.90
15328;DHT22;7764;51.430;6.840;2023-03-23T03:37:45;13.00;99.90
15328;DHT22;7764;51.430;6.840;2023-03-23T03:40:15;12.90;99.90
15328;DHT22;7764;51.430;6.840;2023-03-23T03:42:43;12.90;99.90
15328;DHT22;7764;51.430;6.840;2023-03-23T03:45:12;12.90;99.90
15328;DHT22;7764;51.430;6.840;2023-03-23T03:47:39;12.90;99.90
15328;DHT22;7764;51.430;6.840;2023-03-23T03:50:07;12.90;99.90
15328;DHT22;7764;51.430;6.840;2023-03-23T03:52:35;12.90;99.90
15328;DHT22;7764;51.430;6.840;2023-03-23T03:55:04;12.90;99.90
15328;DHT22;7764;51.430;6.840;2023-03-23T03:57:32;12.90;99.90
15328;DHT22;7764;51.430;6.840;2023-03-23T03:59:59;13.00;99.90
15328;DHT22;7764;51.430;6.840;2023-03-23T04:02:26;13.00;99.90
15328;DHT22;7764;51.430;6.840;2023-03-23T04:04:53;13.00;99.90
15328;DHT22;7764;51.430;6.840;2023-03-23T04:07:20;13.00;99.90
15328;DHT22;7764;51.430;6.840;2023-03-23T04:09:47;13.00;99.90
15328;DHT22;7764;51.430;6.840;2023-03-23T04:12:16;13.00;99.90
15328;DHT22;7764;51.430;6.840;2023-03-23T04:14:44;13.00;99.90
15328;DHT22;7764;51.430;6.840;2023-03-23T04:17:11;13.00;99.90
15328;DHT22;7764;51.430;6.840;2023-03-23T04:19:40;13.00;99.90
15328;DHT22;7764;51.430;6.840;2023-03-23T04:22:07;13.00;99.90
15328;DHT22;7764;51.430;6.840;2023-03-23T04:24:34;13.00;99.90
15328;DHT22;7764;51.430;6.840;2023-03-23T04:27:01;13.00;99.90
15328;DHT22;7764;51.430;6.840;2023-03-23T04:29:30;13.00;99.90
15328;DHT22;7764;51.430;6.840;2023-03-23T04:31:59;13.00;99.90
15328;DHT22;7764;51.430;6.840;2023-03-23T04:34:26;13.10;99.90
15328;DHT22;7764;51.430;6.840;2023-03-23T04:36:53;13.10;99.90
15328;DHT22;7764;51.430;6.840;2023-03-23T04:39:21;13.00;99.90
15328;DHT22;7764;51.430;6.840;2023-03-23T04:41:55;13.10;99.90
15328;DHT22;7764;51.430;6.840;2023-03-23T04:44:26;13.10;99.90
15328;DHT22;7764;51.430;6.840;2023-03-23T04:46:56;13.10;99.90
15328;DHT22;7764;51.430;6.840;2023-03-23T04:49:22;13.40;99.90
15328;DHT22;7764;51.430;6.840;2023-03-23T04:51:49;13.30;99.90
15328;DHT22;7764;51.430;6.840;2023-03-23T04:54:17;13.30;99.90
15328;DHT22;7764;51.430;6.840;2023-03-23T04:56:44;13.20;99.90
15328;DHT22;7764;51.430;6.840;2023-03-23T04:59:11;13.20;99.90
15328;DHT22;7764;51.430;6.840;2023-03-23T05:01:38;13.20;99.90
15328;DHT22;7764;51.430;6.840;2023-03-23T05:04:15;13.20;99.90
15328;DHT22;7764;51.430;6.840;2023-03-23T05:06:46;13.20;99.90
15328;DHT22;7764;51.430;6.840;2023-03-23T05:09:13;13.20;99.90
15328;DHT22;7764;51.430;6.840;2023-03-23T05:11:40;13.20;99.90
15328;DHT22;7764;51.430;6.840;2023-03-23T05:14:07;13.20;99.90
15328;DHT22;7764;51.430;6.840;2023-03-23T05:16:34;13.20;99.90
15328;DHT22;7764;51.430;6.840;2023-03-23T05:19:03;13.20;99.90
15328;DHT22;7764;51.430;6.840;2023-03-23T05:21:31;13.20;99.90
15328;DHT22;7764;51.430;6.840;2023-03-23T05:23:59;13.20;99.90
15328;DHT22;7764;51.430;6.840;2023-03-23T05:26:27;13.20;99.90
15328;DHT22;7764;51.430;6.840;2023-03-23T05:28:58;13.20;99.90
15328;DHT22;7764;51.430;6.840;2023-03-23T05:31:25;13.30;99.90
15328;DHT22;7764;51.430;6.840;2023-03-23T05:33:52;13.30;99.90
15328;DHT22;7764;51.430;6.840;2023-03-23T05:36:19;13.30;99.90
15328;DHT22;7764;51.430;6.840;2023-03-23T05:38:47;13.30;99.90
15328;DHT22;7764;51.430;6.840;2023-03-23T05:41:15;13.20;99.90
15328;DHT22;7764;51.430;6.840;2023-03-23T05:43:42;13.20;99.90
15328;DHT22;7764;51.430;6.840;2023-03-23T05:46:10;13.30;99.90
15328;DHT22;7764;51.430;6.840;2023-03-23T05:48:37;13.30;99.90
15328;DHT22;7764;51.430;6.840;2023-03-23T05:51:04;13.30;99.90
15328;DHT22;7764;51.430;6.840;2023-03-23T05:53:31;13.40;99.90
15328;DHT22;7764;51.430;6.840;2023-03-23T05:56:01;13.30;99.90
15328;DHT22;7764;51.430;6.840;2023-03-23T05:58:29;13.30;99.90
15328;DHT22;7764;51.430;6.840;2023-03-23T06:00:55;13.30;99.90
15328;DHT22;7764;51.430;6.840;2023-03-23T06:03:23;13.30;99.90
15328;DHT22;7764;51.430;6.840;2023-03-23T06:05:51;13.30;99.90
15328;DHT22;7764;51.430;6.840;2023-03-23T06:08:18;13.20;99.90
15328;DHT22;7764;51.430;6.840;2023-03-23T06:10:44;13.20;99.90
15328;DHT22;7764;51.430;6.840;2023-03-23T06:13:13;13.20;99.90
15328;DHT22;7764;51.430;6.840;2023-03-23T06:15:39;13.30;99.90
15328;DHT22;7764;51.430;6.840;2023-03-23T06:18:07;13.30;99.90
15328;DHT22;7764;51.430;6.840;2023-03-23T06:20:34;13.30;99.90
15328;DHT22;7764;51.430;6.840;2023-03-23T06:23:03;13.30;99.90
15328;DHT22;7764;51.430;6.840;2023-03-23T06:25:34;13.30;99.90
15328;DHT22;7764;51.430;6.840;2023-03-23T06:28:01;13.30;99.90
15328;DHT22;7764;51.430;6.840;2023-03-23T06:30:30;13.30;99.90
15328;DHT22;7764;51.430;6.840;2023-03-23T06:32:56;13.40;99.90
15328;DHT22;7764;51.430;6.840;2023-03-23T06:35:23;13.40;99.90
15328;DHT22;7764;51.430;6.840;2023-03-23T06:37:50;13.40;99.90
15328;DHT22;7764;51.430;6.840;2023-03-23T06:40:19;13.50;99.90
15328;DHT22;7764;51.430;6.840;2023-03-23T06:42:47;13.40;99.90
15328;DHT22;7764;51.430;6.840;2023-03-23T06:45:14;13.40;99.90
15328;DHT22;7764;51.430;6.840;2023-03-23T06:47:43;13.40;99.90
15328;DHT22;7764;51.430;6.840;2023-03-23T06:50:14;13.40;99.90
15328;DHT22;7764;51.430;6.840;2023-03-23T06:52:41;13.40;99.90
15328;DHT22;7764;51.430;6.840;2023-03-23T06:55:12;13.50;99.90
15328;DHT22;7764;51.430;6.840;2023-03-23T06:57:39;13.60;99.90
15328;DHT22;7764;51.430;6.840;2023-03-23T07:00:07;13.70;99.90
15328;DHT22;7764;51.430;6.840;2023-03-23T07:02:37;13.70;99.90
15328;DHT22;7764;51.430;6.840;2023-03-23T07:05:06;13.70;99.90
15328;DHT22;7764;51.430;6.840;2023-03-23T07:07:34;13.80;99.90
15328;DHT22;7764;51.430;6.840;2023-03-23T07:10:01;13.70;99.90
15328;DHT22;7764;51.430;6.840;2023-03-23T07:12:29;13.70;99.90
15328;DHT22;7764;51.430;6.840;2023-03-23T07:14:56;13.70;99.90
15328;DHT22;7764;51.430;6.840;2023-03-23T07:17:23;13.60;99.90
15328;DHT22;7764;51.430;6.840;2023-03-23T07:19:50;13.70;99.90
15328;DHT22;7764;51.430;6.840;2023-03-23T07:22:18;13.70;99.90
15328;DHT22;7764;51.430;6.840;2023-03-23T07:24:45;13.80;99.90
15328;DHT22;7764;51.430;6.840;2023-03-23T07:27:12;13.80;99.90
15328;DHT22;7764;51.430;6.840;2023-03-23T07:29:39;13.90;99.90
15328;DHT22;7764;51.430;6.840;2023-03-23T07:32:09;13.90;99.90
15328;DHT22;7764;51.430;6.840;2023-03-23T07:34:36;13.80;99.90
15328;DHT22;7764;51.430;6.840;2023-03-23T07:37:04;13.80;99.90
15328;DHT22;7764;51.430;6.840;2023-03-23T07:39:32;13.80;99.90
15328;DHT22;7764;51.430;6.840;2023-03-23T07:42:08;13.80;99.90
15328;DHT22;7764;51.430;6.840;2023-03-23T07:44:35;13.80;99.90
15328;DHT22;7764;51.430;6.840;2023-03-23T07:47:02;13.80;99.90
15328;DHT22;7764;51.430;6.840;2023-03-23T07:49:29;13.80;99.90
15328;DHT22;7764;51.430;6.840;2023-03-23T07:51:56;13.80;99.90
15328;DHT22;7764;51.430;6.840;2023-03-23T07:54:25;13.80;99.90
15328;DHT22;7764;51.430;6.840;2023-03-23T07:56:53;13.80;99.90
15328;DHT22;7764;51.430;6.840;2023-03-23T07:59:20;13.80;99.90
15328;DHT22;7764;51.430;6.840;2023-03-23T08:01:47;13.80;99.90
15328;DHT22;7764;51.430;6.840;2023-03-23T08:04:14;13.80;99.90
15328;DHT22;7764;51.430;6.840;2023-03-23T08:06:41;13.80;99.90
15328;DHT22;7764;51.430;6.840;2023-03-23T08:09:08;13.90;99.90
15328;DHT22;7764;51.430;6.840;2023-03-23T08:11:35;13.90;99.90
15328;DHT22;7764;51.430;6.840;2023-03-23T08:14:04;13.90;99.90
15328;DHT22;7764;51.430;6.840;2023-03-23T08:16:32;14.00;99.90
15328;DHT22;7764;51.430;6.840;2023-03-23T08:19:01;14.00;99.90
15328;DHT22;7764;51.430;6.840;2023-03-23T08:21:30;14.10;99.90
15328;DHT22;7764;51.430;6.840;2023-03-23T08:23:58;14.10;99.90
15328;DHT22;7764;51.430;6.840;2023-03-23T08:26:25;14.10;99.90
15328;DHT22;7764;51.430;6.840;2023-03-23T08:28:53;14.20;99.90
15328;DHT22;7764;51.430;6.840;2023-03-23T08:31:21;14.20;99.90
15328;DHT22;7764;51.430;6.840;2023-03-23T08:33:48;14.30;99.90
15328;DHT22;7764;51.430;6.840;2023-03-23T08:36:15;14.30;99.90
15328;DHT22;7764;51.430;6.840;2023-03-23T08:38:50;14.40;99.90
15328;DHT22;7764;51.430;6.840;2023-03-23T08:41:18;14.50;99.90
15328;DHT22;7764;51.430;6.840;2023-03-23T08:43:45;14.60;99.90
15328;DHT22;7764;51.430;6.840;2023-03-23T08:46:12;14.60;99.90
15328;DHT22;7764;51.430;6.840;2023-03-23T08:48:40;14.70;99.90
15328;DHT22;7764;51.430;6.840;2023-03-23T08:51:09;14.60;99.90
15328;DHT22;7764;51.430;6.840;2023-03-23T08:53:36;14.60;99.90
15328;DHT22;7764;51.430;6.840;2023-03-23T08:56:04;14.70;99.90
15328;DHT22;7764;51.430;6.840;2023-03-23T08:58:32;14.80;99.90
15328;DHT22;7764;51.430;6.840;2023-03-23T09:00:59;14.70;99.90
15328;DHT22;7764;51.430;6.840;2023-03-23T09:03:27;14.70;99.90
15328;DHT22;7764;51.430;6.840;2023-03-23T09:05:58;14.60;99.90
15328;DHT22;7764;51.430;6.840;2023-03-23T09:08:25;14.60;99.90
15328;DHT22;7764;51.430;6.840;2023-03-23T09:10:54;14.60;99.90
15328;DHT22;7764;51.430;6.840;2023-03-23T09:13:21;14.60;99.90
15328;DHT22;7764;51.430;6.840;2023-03-23T09:15:48;14.50;99.90
15328;DHT22;7764;51.430;6.840;2023-03-23T09:18:20;14.40;99.90
15328;DHT22;7764;51.430;6.840;2023-03-23T09:21:03;14.40;99.90
15328;DHT22;7764;51.430;6.840;2023-03-23T09:23:30;14.40;99.90
15328;DHT22;7764;51.430;6.840;2023-03-23T09:25:59;14.40;99.90
15328;DHT22;7764;51.430;6.840;2023-03-23T09:28:26;14.30;99.90
15328;DHT22;7764;51.430;6.840;2023-03-23T09:30:54;14.30;99.90
15328;DHT22;7764;51.430;6.840;2023-03-23T09:33:23;14.30;99.90
15328;DHT22;7764;51.430;6.840;2023-03-23T09:35:51;14.30;99.90
15328;DHT22;7764;51.430;6.840;2023-03-23T09:38:20;14.30;99.90
15328;DHT22;7764;51.430;6.840;2023-03-23T09:40:49;14.30;99.90
15328;DHT22;7764;51.430;6.840;2023-03-23T09:43:29;14.40;99.90
15328;DHT22;7764;51.430;6.840;2023-03-23T09:46:08;14.30;99.90
15328;DHT22;7764;51.430;6.840;2023-03-23T09:48:45;14.20;99.90
15328;DHT22;7764;51.430;6.840;2023-03-23T09:51:21;13.40;99.90
15328;DHT22;7764;51.430;6.840;2023-03-23T09:53:54;13.00;99.90
15328;DHT22;7764;51.430;6.840;2023-03-23T09:56:31;12.50;99.90
15328;DHT22;7764;51.430;6.840;2023-03-23T09:59:02;12.40;99.90
15328;DHT22;7764;51.430;6.840;2023-03-23T10:01:36;12.20;99.90
15328;DHT22;7764;51.430;6.840;2023-03-23T10:04:09;12.10;99.90
15328;DHT22;7764;51.430;6.840;2023-03-23T10:06:37;12.30;99.90
15328;DHT22;7764;51.430;6.840;2023-03-23T10:09:15;12.20;99.90
15328;DHT22;7764;51.430;6.840;2023-03-23T10:11:50;12.20;99.90
15328;DHT22;7764;51.430;6.840;2023-03-23T10:14:33;12.00;99.90
15328;DHT22;7764;51.430;6.840;2023-03-23T10:17:09;12.10;99.90
15328;DHT22;7764;51.430;6.840;2023-03-23T10:19:42;12.10;99.90
15328;DHT22;7764;51.430;6.840;2023-03-23T10:22:20;12.10;99.90
15328;DHT22;7764;51.430;6.840;2023-03-23T10:24:53;12.20;99.90
15328;DHT22;7764;51.430;6.840;2023-03-23T10:27:26;12.20;99.90
15328;DHT22;7764;51.430;6.840;2023-03-23T10:30:02;12.40;99.90
15328;DHT22;7764;51.430;6.840;2023-03-23T10:32:42;12.40;99.90
15328;DHT22;7764;51.430;6.840;2023-03-23T10:35:13;12.40;99.90
15328;DHT22;7764;51.430;6.840;2023-03-23T10:37:44;12.40;99.90
15328;DHT22;7764;51.430;6.840;2023-03-23T10:40:16;12.40;99.90
15328;DHT22;7764;51.430;6.840;2023-03-23T10:42:44;12.20;99.90
15328;DHT22;7764;51.430;6.840;2023-03-23T10:45:16;12.30;99.90
15328;DHT22;7764;51.430;6.840;2023-03-23T10:47:47;12.30;99.90
15328;DHT22;7764;51.430;6.840;2023-03-23T10:50:18;12.20;99.90
15328;DHT22;7764;51.430;6.840;2023-03-23T10:52:50;12.30;99.90
15328;DHT22;7764;51.430;6.840;2023-03-23T10:55:21;12.30;99.90
15328;DHT22;7764;51.430;6.840;2023-03-23T10:58:00;12.40;99.90
15328;DHT22;7764;51.430;6.840;2023-03-23T11:00:40;12.30;99.90
15328;DHT22;7764;51.430;6.840;2023-03-23T11:03:24;12.40;99.90
15328;DHT22;7764;51.430;6.840;2023-03-23T11:05:53;12.30;99.90
15328;DHT22;7764;51.430;6.840;2023-03-23T11:08:24;12.20;99.90
15328;DHT22;7764;51.430;6.840;2023-03-23T11:10:55;12.10;99.90
15328;DHT22;7764;51.430;6.840;2023-03-23T11:13:29;12.20;99.90
15328;DHT22;7764;51.430;6.840;2023-03-23T11:15:57;12.10;99.90
15328;DHT22;7764;51.430;6.840;2023-03-23T11:18:25;12.10;99.90
15328;DHT22;7764;51.430;6.840;2023-03-23T11:20:55;12.10;99.90
15328;DHT22;7764;51.430;6.840;2023-03-23T11:23:27;12.10;99.90
15328;DHT22;7764;51.430;6.840;2023-03-23T11:26:01;12.10;99.90
15328;DHT22;7764;51.430;6.840;2023-03-23T11:28:32;12.10;99.90
15328;DHT22;7764;51.430;6.840;2023-03-23T11:31:03;12.00;99.90
15328;DHT22;7764;51.430;6.840;2023-03-23T11:33:37;12.10;99.90
15328;DHT22;7764;51.430;6.840;2023-03-23T11:36:06;12.10;99.90
15328;DHT22;7764;51.430;6.840;2023-03-23T11:38:35;12.10;99.90
15328;DHT22;7764;51.430;6.840;2023-03-23T11:41:09;12.10;99.90
15328;DHT22;7764;51.430;6.840;2023-03-23T11:43:40;12.10;99.90
15328;DHT22;7764;51.430;6.840;2023-03-23T11:46:18;12.20;99.90
15328;DHT22;7764;51.430;6.840;2023-03-23T11:48:54;12.30;99.90
15328;DHT22;7764;51.430;6.840;2023-03-23T11:51:29;12.40;99.90
15328;DHT22;7764;51.430;6.840;2023-03-23T11:54:02;12.30;99.90
15328;DHT22;7764;51.430;6.840;2023-03-23T11:56:34;12.30;99.90
15328;DHT22;7764;51.430;6.840;2023-03-23T11:59:03;12.20;99.90
15328;DHT22;7764;51.430;6.840;2023-03-23T12:01:41;12.20;99.90
15328;DHT22;7764;51.430;6.840;2023-03-23T12:04:30;12.40;99.90
15328;DHT22;7764;51.430;6.840;2023-03-23T12:07:07;12.40;99.90
15328;DHT22;7764;51.430;6.840;2023-03-23T12:09:43;12.50;99.90
15328;DHT22;7764;51.430;6.840;2023-03-23T12:12:21;12.40;99.90
15328;DHT22;7764;51.430;6.840;2023-03-23T12:14:56;12.60;99.90
15328;DHT22;7764;51.430;6.840;2023-03-23T12:17:33;12.60;99.90
15328;DHT22;7764;51.430;6.840;2023-03-23T12:20:14;12.60;99.90
15328;DHT22;7764;51.430;6.840;2023-03-23T12:22:54;12.50;99.90
15328;DHT22;7764;51.430;6.840;2023-03-23T12:25:46;12.50;99.90
15328;DHT22;7764;51.430;6.840;2023-03-23T12:28:26;12.50;99.90
15328;DHT22;7764;51.430;6.840;2023-03-23T12:30:59;12.50;99.90
15328;DHT22;7764;51.430;6.840;2023-03-23T12:33:37;12.80;99.90
15328;DHT22;7764;51.430;6.840;2023-03-23T12:36:22;12.90;99.90
15328;DHT22;7764;51.430;6.840;2023-03-23T12:39:12;12.80;99.90
15328;DHT22;7764;51.430;6.840;2023-03-23T12:41:47;13.10;99.90
15328;DHT22;7764;51.430;6.840;2023-03-23T12:44:24;13.20;99.90
15328;DHT22;7764;51.430;6.840;2023-03-23T12:47:07;13.20;99.90
15328;DHT22;7764;51.430;6.840;2023-03-23T12:49:39;13.20;99.90
15328;DHT22;7764;51.430;6.840;2023-03-23T12:52:14;13.30;99.90
15328;DHT22;7764;51.430;6.840;2023-03-23T12:54:47;13.30;99.90
15328;DHT22;7764;51.430;6.840;2023-03-23T12:57:23;13.40;99.90
15328;DHT22;7764;51.430;6.840;2023-03-23T12:59:58;13.50;99.90
15328;DHT22;7764;51.430;6.840;2023-03-23T13:02:40;13.60;99.90
15328;DHT22;7764;51.430;6.840;2023-03-23T13:05:12;13.70;99.90
15328;DHT22;7764;51.430;6.840;2023-03-23T13:07:46;13.90;99.90
15328;DHT22;7764;51.430;6.840;2023-03-23T13:10:20;13.90;99.90
15328;DHT22;7764;51.430;6.840;2023-03-23T13:12:49;13.80;99.90
15328;DHT22;7764;51.430;6.840;2023-03-23T13:15:28;13.90;99.90
15328;DHT22;7764;51.430;6.840;2023-03-23T13:18:03;14.00;99.90
15328;DHT22;7764;51.430;6.840;2023-03-23T13:20:54;14.10;99.90
15328;DHT22;7764;51.430;6.840;2023-03-23T13:23:24;14.00;99.90
15328;DHT22;7764;51.430;6.840;2023-03-23T13:25:56;13.90;99.90
15328;DHT22;7764;51.430;6.840;2023-03-23T13:28:28;14.00;99.90
15328;DHT22;7764;51.430;6.840;2023-03-23T13:31:13;14.00;99.90
15328;DHT22;7764;51.430;6.840;2023-03-23T13:33:46;14.00;99.90
15328;DHT22;7764;51.430;6.840;2023-03-23T13:36:25;14.10;99.90
15328;DHT22;7764;51.430;6.840;2023-03-23T13:38:54;14.00;99.90
15328;DHT22;7764;51.430;6.840;2023-03-23T13:41:22;14.10;99.90
15328;DHT22;7764;51.430;6.840;2023-03-23T13:43:50;14.10;99.90
15328;DHT22;7764;51.430;6.840;2023-03-23T13:46:28;14.10;99.90
15328;DHT22;7764;51.430;6.840;2023-03-23T13:49:22;14.00;99.90
15328;DHT22;7764;51.430;6.840;2023-03-23T13:52:14;14.20;99.90
15328;DHT22;7764;51.430;6.840;2023-03-23T13:54:44;14.30;99.90
15328;DHT22;7764;51.430;6.840;2023-03-23T13:57:49;14.30;99.90
15328;DHT22;7764;51.430;6.840;2023-03-23T14:00:46;14.50;99.90
15328;DHT22;7764;51.430;6.840;2023-03-23T14:03:24;14.50;99.90
15328;DHT22;7764;51.430;6.840;2023-03-23T14:06:02;14.70;99.90
15328;DHT22;7764;51.430;6.840;2023-03-23T14:08:40;14.60;99.90
15328;DHT22;7764;51.430;6.840;2023-03-23T14:11:13;14.60;99.90
15328;DHT22;7764;51.430;6.840;2023-03-23T14:13:46;14.60;99.90
15328;DHT22;7764;51.430;6.840;2023-03-23T14:16:17;14.60;99.90
15328;DHT22;7764;51.430;6.840;2023-03-23T14:18:52;14.60;99.90
15328;DHT22;7764;51.430;6.840;2023-03-23T14:21:32;14.50;99.90
15328;DHT22;7764;51.430;6.840;2023-03-23T14:24:05;14.70;99.90
15328;DHT22;7764;51.430;6.840;2023-03-23T14:26:35;14.70;99.90
15328;DHT22;7764;51.430;6.840;2023-03-23T14:29:04;14.80;99.90
15328;DHT22;7764;51.430;6.840;2023-03-23T14:31:31;14.80;99.90
15328;DHT22;7764;51.430;6.840;2023-03-23T14:34:04;14.80;99.90
15328;DHT22;7764;51.430;6.840;2023-03-23T14:36:32;14.90;99.90
15328;DHT22;7764;51.430;6.840;2023-03-23T14:39:04;14.80;99.90
15328;DHT22;7764;51.430;6.840;2023-03-23T14:41:34;14.70;99.90
15328;DHT22;7764;51.430;6.840;2023-03-23T14:44:03;14.60;99.90
15328;DHT22;7764;51.430;6.840;2023-03-23T14:46:32;14.70;99.90
15328;DHT22;7764;51.430;6.840;2023-03-23T14:49:02;14.70;99.90
15328;DHT22;7764;51.430;6.840;2023-03-23T14:51:33;14.60;99.90
15328;DHT22;7764;51.430;6.840;2023-03-23T14:54:00;14.70;99.90
15328;DHT22;7764;51.430;6.840;2023-03-23T14:56:33;14.90;99.90
15328;DHT22;7764;51.430;6.840;2023-03-23T14:59:03;14.80;99.90
15328;DHT22;7764;51.430;6.840;2023-03-23T15:01:35;14.80;99.90
15328;DHT22;7764;51.430;6.840;2023-03-23T15:04:07;14.90;99.90
15328;DHT22;7764;51.430;6.840;2023-03-23T15:06:37;14.80;99.90
15328;DHT22;7764;51.430;6.840;2023-03-23T15:09:10;14.80;99.90
15328;DHT22;7764;51.430;6.840;2023-03-23T15:11:39;14.90;99.90
15328;DHT22;7764;51.430;6.840;2023-03-23T15:14:10;15.00;99.90
15328;DHT22;7764;51.430;6.840;2023-03-23T15:16:45;14.90;99.90
15328;DHT22;7764;51.430;6.840;2023-03-23T15:19:17;15.00;99.90
15328;DHT22;7764;51.430;6.840;2023-03-23T15:21:50;15.20;99.90
15328;DHT22;7764;51.430;6.840;2023-03-23T15:24:21;15.20;99.90
15328;DHT22;7764;51.430;6.840;2023-03-23T15:26:50;15.20;99.90
15328;DHT22;7764;51.430;6.840;2023-03-23T15:29:18;15.20;99.90
15328;DHT22;7764;51.430;6.840;2023-03-23T15:31:50;15.20;99.90
15328;DHT22;7764;51.430;6.840;2023-03-23T15:34:27;15.20;99.90
15328;DHT22;7764;51.430;6.840;2023-03-23T15:36:57;15.10;99.90
15328;DHT22;7764;51.430;6.840;2023-03-23T15:39:26;15.10;99.90
15328;DHT22;7764;51.430;6.840;2023-03-23T15:41:55;15.20;99.90
15328;DHT22;7764;51.430;6.840;2023-03-23T15:44:26;15.10;99.90
15328;DHT22;7764;51.430;6.840;2023-03-23T15:47:03;15.20;99.90
15328;DHT22;7764;51.430;6.840;2023-03-23T15:49:31;15.10;99.90
15328;DHT22;7764;51.430;6.840;2023-03-23T15:51:58;15.10;99.90
15328;DHT22;7764;51.430;6.840;2023-03-23T15:54:30;15.10;99.90
15328;DHT22;7764;51.430;6.840;2023-03-23T15:56:57;15.20;99.90
15328;DHT22;7764;51.430;6.840;2023-03-23T15:59:24;15.20;99.90
15328;DHT22;7764;51.430;6.840;2023-03-23T16:01:51;15.10;99.90
15328;DHT22;7764;51.430;6.840;2023-03-23T16:04:18;15.00;99.90
15328;DHT22;7764;51.430;6.840;2023-03-23T16:06:47;15.00;99.90
15328;DHT22;7764;51.430;6.840;2023-03-23T16:09:17;15.00;99.90